createdAt,value
2022-10-07T00:02:59.264Z,101734.60
2022-10-07T00:08:01.123Z,101728.20
2022-10-07T00:13:02.992Z,101726.40
2022-10-07T00:18:05.074Z,101723.80
2022-10-07T00:23:07.671Z,101718.40
2022-10-07T00:28:09.581Z,101724.00
2022-10-07T00:33:11.426Z,101725.20
2022-10-07T00:38:13.167Z,101728.20
2022-10-07T00:43:30.799Z,101723.80
2022-10-07T00:48:36.394Z,101716.00
2022-10-07T00:53:40.652Z,101709.20
2022-10-07T00:58:46.712Z,101714.20
2022-10-07T01:03:49.000Z,101714.60
2022-10-07T01:08:53.558Z,101710.40
2022-10-07T01:14:22.042Z,101713.60
2022-10-07T01:19:42.660Z,101703.20
2022-10-07T01:25:01.224Z,101702.60
2022-10-07T01:30:07.777Z,101708.00
2022-10-07T01:35:21.060Z,101709.60
2022-10-07T01:40:29.897Z,101710.20
2022-10-07T01:45:37.453Z,101701.80
2022-10-07T01:50:39.696Z,101705.00
2022-10-07T01:56:16.900Z,101697.40
2022-10-07T02:01:37.759Z,101685.80
2022-10-07T02:07:34.583Z,101689.40
2022-10-07T02:12:59.340Z,101689.00
2022-10-07T02:18:06.965Z,101693.60
2022-10-07T02:23:13.614Z,101685.00
2022-10-07T02:28:22.963Z,101688.00
2022-10-07T02:33:28.418Z,101691.20
2022-10-07T02:38:30.912Z,101691.20
2022-10-07T02:43:52.946Z,101691.40
2022-10-07T02:49:07.740Z,101693.80
2022-10-07T02:54:09.512Z,101683.00
2022-10-07T02:59:15.223Z,101681.60
2022-10-07T03:04:18.285Z,101683.80
2022-10-07T03:09:20.473Z,101687.60
2022-10-07T03:14:24.228Z,101686.80
2022-10-07T03:19:26.579Z,101690.40
2022-10-07T03:24:28.264Z,101691.40
2022-10-07T03:29:32.383Z,101687.60
2022-10-07T03:34:34.056Z,101686.80
2022-10-07T03:39:35.831Z,101691.60
2022-10-07T03:44:37.796Z,101687.40
2022-10-07T03:49:41.125Z,101681.00
2022-10-07T03:54:43.207Z,101675.00
2022-10-07T03:59:44.873Z,101674.00
2022-10-07T04:04:46.546Z,101676.00
2022-10-07T04:09:48.732Z,101672.40
2022-10-07T04:14:50.622Z,101668.40
2022-10-07T04:19:52.285Z,101668.00
2022-10-07T04:25:12.795Z,101666.80
2022-10-07T04:30:14.470Z,101666.20
2022-10-07T04:35:21.683Z,101667.40
2022-10-07T04:40:24.887Z,101659.60
2022-10-07T04:45:27.474Z,101664.20
2022-10-07T04:50:29.252Z,101671.00
2022-10-07T04:55:39.625Z,101671.00
2022-10-07T05:00:45.226Z,101671.40
2022-10-07T05:05:50.594Z,101669.00
2022-10-07T05:10:57.899Z,101666.80
2022-10-07T05:16:02.505Z,101665.60
2022-10-07T05:21:08.367Z,101663.20
2022-10-07T05:26:10.774Z,101657.40
2022-10-07T05:31:14.478Z,101660.00
2022-10-07T05:36:16.374Z,101663.20
2022-10-07T05:41:19.254Z,101662.20
2022-10-07T05:46:23.291Z,101665.00
2022-10-07T05:51:26.188Z,101654.60
2022-10-07T05:56:27.865Z,101663.20
2022-10-07T06:01:29.836Z,101654.60
2022-10-07T06:06:31.510Z,101658.20
2022-10-07T06:11:51.722Z,101659.40
2022-10-07T06:16:53.452Z,101665.00
2022-10-07T06:21:55.473Z,101672.20
2022-10-07T06:26:58.888Z,101673.60
2022-10-07T06:32:00.761Z,101675.80
2022-10-07T06:37:02.436Z,101676.20
2022-10-07T06:42:04.319Z,101675.20
2022-10-07T06:47:10.644Z,101678.60
2022-10-07T06:52:13.599Z,101676.20
2022-10-07T06:57:43.644Z,101675.60
2022-10-07T07:02:37.298Z,101681.80
2022-10-07T07:07:39.193Z,101679.20
2022-10-07T07:12:40.904Z,101683.40
2022-10-07T07:17:42.932Z,101681.40
2022-10-07T07:22:45.030Z,101688.20
2022-10-07T07:27:47.219Z,101685.40
2022-10-07T07:32:50.013Z,101681.60
2022-10-07T07:37:53.223Z,101674.60
2022-10-07T07:42:55.404Z,101669.60
2022-10-07T07:47:58.615Z,101676.80
2022-10-07T07:53:03.983Z,101669.60
2022-10-07T07:58:11.743Z,101667.60
2022-10-07T08:03:13.768Z,101672.20
2022-10-07T08:08:15.446Z,101671.00
2022-10-07T08:13:17.219Z,101666.20
2022-10-07T08:18:19.095Z,101668.20
2022-10-07T08:23:21.692Z,101666.80
2022-10-07T08:28:24.656Z,101666.80
2022-10-07T08:33:26.371Z,101659.20
2022-10-07T08:38:33.783Z,101659.00
2022-10-07T08:43:51.675Z,101661.60
2022-10-07T08:48:59.812Z,101653.80
2022-10-07T08:54:01.830Z,101648.00
2022-10-07T08:59:28.081Z,101648.80
2022-10-07T09:05:26.379Z,101634.00
2022-10-07T09:10:33.785Z,101634.20
2022-10-07T09:15:43.484Z,101627.20
2022-10-07T09:20:54.436Z,101618.20
2022-10-07T09:25:57.042Z,101613.60
2022-10-07T09:31:00.712Z,101611.60
2022-10-07T09:36:10.291Z,101609.40
2022-10-07T09:41:25.789Z,101598.40
2022-10-07T09:46:40.761Z,101598.60
2022-10-07T09:52:02.032Z,101601.00
2022-10-07T09:57:06.360Z,101584.00
2022-10-07T10:02:14.666Z,101584.40
2022-10-07T10:07:20.630Z,101583.00
2022-10-07T10:12:24.880Z,101569.60
2022-10-07T10:17:35.565Z,101567.80
2022-10-07T10:22:37.185Z,101569.40
2022-10-07T10:28:13.346Z,101566.00
2022-10-07T10:33:41.046Z,101556.40
2022-10-07T10:39:17.977Z,101547.20
2022-10-07T10:44:57.697Z,101543.20
2022-10-07T10:50:24.031Z,101532.60
2022-10-07T10:56:11.601Z,101522.60
2022-10-07T11:01:23.349Z,101519.20
2022-10-07T11:06:29.976Z,101507.20
2022-10-07T11:11:33.715Z,101501.80
2022-10-07T11:16:45.568Z,101495.40
2022-10-07T11:21:54.051Z,101488.40
2022-10-07T11:27:03.755Z,101477.60
2022-10-07T11:32:21.360Z,101477.20
2022-10-07T11:37:38.499Z,101467.40
2022-10-07T11:42:46.832Z,101456.20
2022-10-07T11:48:00.786Z,101441.80
2022-10-07T11:53:18.849Z,101431.60
2022-10-07T11:58:31.436Z,101429.40
2022-10-07T12:03:33.094Z,101419.40
2022-10-07T12:08:37.869Z,101413.60
2022-10-07T12:13:53.551Z,101399.40
2022-10-07T12:19:07.068Z,101393.00
2022-10-07T12:24:14.478Z,101385.00
2022-10-07T12:29:23.802Z,101374.20
2022-10-07T12:34:39.585Z,101372.40
2022-10-07T12:39:41.848Z,101365.80
2022-10-07T12:44:52.155Z,101356.40
2022-10-07T12:50:06.321Z,101351.40
2022-10-07T12:55:36.475Z,101339.60
2022-10-07T13:01:09.066Z,101325.40
2022-10-07T13:06:50.259Z,101322.40
2022-10-07T13:12:23.255Z,101311.00
2022-10-07T13:17:53.879Z,101310.20
2022-10-07T13:22:55.845Z,101303.40
2022-10-07T13:27:59.584Z,101303.00
2022-10-07T13:33:30.755Z,101293.00
2022-10-07T13:38:34.485Z,101290.00
2022-10-07T13:43:38.122Z,101281.00
2022-10-07T13:49:35.229Z,101272.60
2022-10-07T13:54:37.148Z,101260.00
2022-10-07T13:59:39.829Z,101248.20
2022-10-07T14:12:16.364Z,101225.40
2022-10-07T14:17:43.602Z,101224.80
2022-10-07T14:22:52.734Z,101214.20
2022-10-07T14:27:57.652Z,101201.40
2022-10-07T14:33:30.362Z,101191.60
2022-10-07T14:38:31.952Z,101191.60
2022-10-07T14:43:35.425Z,101184.40
2022-10-07T14:48:38.005Z,101173.40
2022-10-07T14:53:41.577Z,101163.00
2022-10-07T14:58:43.381Z,101151.20
2022-10-07T15:03:48.049Z,101150.80
2022-10-07T15:08:50.011Z,101142.40
2022-10-07T15:13:51.957Z,101134.60
2022-10-07T15:18:54.154Z,101124.80
2022-10-07T15:23:56.561Z,101122.80
2022-10-07T15:28:59.504Z,101118.80
2022-10-07T15:34:01.267Z,101113.40
2022-10-07T15:39:03.704Z,101111.00
2022-10-07T15:44:15.554Z,101106.60
2022-10-07T15:49:17.531Z,101100.80
2022-10-07T15:54:20.278Z,101091.00
2022-10-07T15:59:24.280Z,101083.20
2022-10-07T16:04:28.617Z,101078.40
2022-10-07T16:09:33.172Z,101073.80
2022-10-07T16:14:36.967Z,101064.20
2022-10-07T16:19:40.934Z,101066.60
2022-10-07T16:24:44.694Z,101064.20
2022-10-07T16:30:06.735Z,101058.40
2022-10-07T16:35:10.470Z,101052.60
2022-10-07T16:40:13.944Z,101049.80
2022-10-07T16:45:18.566Z,101050.00
2022-10-07T16:50:23.449Z,101049.00
2022-10-07T16:55:28.015Z,101043.20
2022-10-07T17:10:21.609Z,101047.40
2022-10-07T17:15:25.114Z,101043.60
2022-10-07T17:20:28.425Z,101039.00
2022-10-07T17:25:31.549Z,101036.40
2022-10-07T17:30:34.534Z,101032.20
2022-10-07T17:35:38.483Z,101025.80
2022-10-07T17:40:43.817Z,101020.80
2022-10-07T17:45:47.846Z,101023.00
2022-10-07T17:50:50.848Z,101021.80
2022-10-07T17:55:53.965Z,101014.40
2022-10-07T18:00:59.474Z,101001.80
2022-10-07T18:06:03.831Z,101001.80
2022-10-07T18:11:07.916Z,101001.20
2022-10-07T18:16:14.143Z,100994.40
2022-10-07T18:21:17.399Z,100988.00
2022-10-07T18:26:20.695Z,100986.20
2022-10-07T18:31:23.709Z,100980.40
2022-10-07T18:36:27.204Z,100975.40
2022-10-07T18:41:30.214Z,100962.20
2022-10-07T18:46:34.137Z,100962.00
2022-10-07T18:51:37.852Z,100956.00
2022-10-07T18:56:41.697Z,100956.60
2022-10-07T19:01:49.331Z,100948.80
2022-10-07T19:06:54.039Z,100946.80
2022-10-07T19:11:57.353Z,100948.40
2022-10-07T19:17:00.449Z,100947.60
2022-10-07T19:22:04.939Z,100943.40
2022-10-07T19:27:08.095Z,100937.20
2022-10-07T19:32:11.145Z,100931.80
2022-10-07T19:37:14.613Z,100927.60
2022-10-07T19:42:18.438Z,100921.20
2022-10-07T19:47:21.467Z,100913.40
2022-10-07T19:52:26.595Z,100911.00
2022-10-07T19:57:29.611Z,100907.60
2022-10-07T20:02:32.644Z,100909.20
2022-10-07T20:07:36.527Z,100906.20
2022-10-07T20:12:40.804Z,100901.00
2022-10-07T20:17:45.837Z,100894.60
2022-10-07T20:22:49.576Z,100885.00
2022-10-07T20:27:52.742Z,100883.80
2022-10-07T20:32:55.850Z,100885.00
2022-10-07T20:37:58.854Z,100882.40
2022-10-07T20:43:03.496Z,100872.00
2022-10-07T20:48:06.495Z,100872.80
2022-10-07T20:53:09.499Z,100864.00
2022-10-07T20:58:15.072Z,100864.80
2022-10-07T21:03:18.476Z,100860.80
2022-10-07T21:08:21.485Z,100844.40
2022-10-07T21:13:24.512Z,100843.60
2022-10-07T21:18:30.750Z,100838.60
2022-10-07T21:23:33.884Z,100834.00
2022-10-07T21:28:38.786Z,100827.20
2022-10-07T21:33:41.925Z,100825.20
2022-10-07T21:38:47.911Z,100825.80
2022-10-07T21:43:54.575Z,100821.00
2022-10-07T21:48:58.931Z,100810.80
2022-10-07T21:54:03.367Z,100806.00
2022-10-07T21:59:06.385Z,100803.00
2022-10-07T22:04:18.526Z,100793.00
2022-10-07T22:09:21.692Z,100790.40
2022-10-07T22:14:24.799Z,100783.40
2022-10-07T22:19:27.911Z,100778.60
2022-10-07T22:24:31.318Z,100771.80
2022-10-07T22:29:37.251Z,100761.60
2022-10-07T22:34:58.864Z,100753.60
2022-10-07T22:40:01.966Z,100743.00
2022-10-07T22:45:07.176Z,100735.00
2022-10-07T22:50:10.713Z,100724.00
2022-10-07T22:55:13.812Z,100724.40
2022-10-07T23:00:17.852Z,100722.00
2022-10-07T23:05:22.687Z,100708.00
2022-10-07T23:10:25.695Z,100706.20
2022-10-07T23:15:28.824Z,100698.00
2022-10-07T23:20:31.763Z,100693.20
2022-10-07T23:25:34.705Z,100681.40
2022-10-07T23:30:38.159Z,100680.80
2022-10-07T23:35:42.298Z,100667.40
2022-10-07T23:40:45.556Z,100664.20
2022-10-07T23:45:51.274Z,100655.80
2022-10-07T23:50:58.224Z,100649.00
2022-10-07T23:56:02.114Z,100644.40
